sensor_id;sensor_type;location;lat;lon;timestamp;P1;durP1;ratioP1;P2;durP2;ratioP2
48629;SDS011;34426;52.180;4.462;2022-11-04T00:01:31;7.43;;;1.27;;
48629;SDS011;34426;52.180;4.462;2022-11-04T00:03:57;5.22;;;1.20;;
48629;SDS011;34426;52.180;4.462;2022-11-04T00:06:24;7.05;;;1.13;;
48629;SDS011;34426;52.180;4.462;2022-11-04T00:08:51;5.47;;;1.05;;
48629;SDS011;34426;52.180;4.462;2022-11-04T00:11:17;6.82;;;1.35;;
48629;SDS011;34426;52.180;4.462;2022-11-04T00:13:44;6.07;;;1.15;;
48629;SDS011;34426;52.180;4.462;2022-11-04T00:16:10;3.17;;;0.73;;
48629;SDS011;34426;52.180;4.462;2022-11-04T00:18:38;6.72;;;0.85;;
48629;SDS011;34426;52.180;4.462;2022-11-04T00:21:04;4.45;;;1.20;;
48629;SDS011;34426;52.180;4.462;2022-11-04T00:23:31;6.00;;;0.70;;
48629;SDS011;34426;52.180;4.462;2022-11-04T00:25:57;8.07;;;1.40;;
48629;SDS011;34426;52.180;4.462;2022-11-04T00:28:23;9.82;;;1.40;;
48629;SDS011;34426;52.180;4.462;2022-11-04T00:30:52;6.00;;;0.93;;
48629;SDS011;34426;52.180;4.462;2022-11-04T00:33:18;7.75;;;1.20;;
48629;SDS011;34426;52.180;4.462;2022-11-04T00:35:49;12.48;;;1.88;;
48629;SDS011;34426;52.180;4.462;2022-11-04T00:38:15;7.45;;;1.15;;
48629;SDS011;34426;52.180;4.462;2022-11-04T00:40:41;9.73;;;1.73;;
48629;SDS011;34426;52.180;4.462;2022-11-04T00:43:07;14.88;;;1.73;;
48629;SDS011;34426;52.180;4.462;2022-11-04T00:45:33;11.85;;;1.73;;
48629;SDS011;34426;52.180;4.462;2022-11-04T00:47:59;13.55;;;1.67;;
48629;SDS011;34426;52.180;4.462;2022-11-04T00:50:26;10.75;;;1.65;;
48629;SDS011;34426;52.180;4.462;2022-11-04T00:52:59;9.57;;;1.58;;
48629;SDS011;34426;52.180;4.462;2022-11-04T00:55:25;15.57;;;1.73;;
48629;SDS011;34426;52.180;4.462;2022-11-04T00:57:51;14.48;;;1.80;;
48629;SDS011;34426;52.180;4.462;2022-11-04T01:00:17;9.93;;;1.10;;
48629;SDS011;34426;52.180;4.462;2022-11-04T01:02:43;7.63;;;0.85;;
48629;SDS011;34426;52.180;4.462;2022-11-04T01:05:09;11.35;;;1.20;;
48629;SDS011;34426;52.180;4.462;2022-11-04T01:07:36;10.95;;;1.00;;
48629;SDS011;34426;52.180;4.462;2022-11-04T01:10:04;14.63;;;2.35;;
48629;SDS011;34426;52.180;4.462;2022-11-04T01:12:30;14.20;;;1.55;;
48629;SDS011;34426;52.180;4.462;2022-11-04T01:14:56;19.33;;;1.67;;
48629;SDS011;34426;52.180;4.462;2022-11-04T01:17:22;17.60;;;1.60;;
48629;SDS011;34426;52.180;4.462;2022-11-04T01:19:48;13.07;;;2.40;;
48629;SDS011;34426;52.180;4.462;2022-11-04T01:22:14;14.27;;;1.50;;
48629;SDS011;34426;52.180;4.462;2022-11-04T01:24:41;18.58;;;1.80;;
48629;SDS011;34426;52.180;4.462;2022-11-04T01:27:09;8.40;;;1.40;;
48629;SDS011;34426;52.180;4.462;2022-11-04T01:29:35;16.30;;;1.58;;
48629;SDS011;34426;52.180;4.462;2022-11-04T01:32:01;24.02;;;1.85;;
48629;SDS011;34426;52.180;4.462;2022-11-04T01:34:27;14.07;;;1.42;;
48629;SDS011;34426;52.180;4.462;2022-11-04T01:36:53;13.20;;;1.50;;
48629;SDS011;34426;52.180;4.462;2022-11-04T01:39:20;14.25;;;1.60;;
48629;SDS011;34426;52.180;4.462;2022-11-04T01:41:46;16.77;;;2.05;;
48629;SDS011;34426;52.180;4.462;2022-11-04T01:46:57;15.13;;;1.55;;
48629;SDS011;34426;52.180;4.462;2022-11-04T01:49:25;19.95;;;2.63;;
48629;SDS011;34426;52.180;4.462;2022-11-04T01:51:53;10.43;;;1.13;;
48629;SDS011;34426;52.180;4.462;2022-11-04T01:54:21;13.93;;;1.35;;
48629;SDS011;34426;52.180;4.462;2022-11-04T01:56:48;11.75;;;0.95;;
48629;SDS011;34426;52.180;4.462;2022-11-04T01:59:14;15.48;;;1.23;;
48629;SDS011;34426;52.180;4.462;2022-11-04T02:01:43;10.85;;;1.23;;
48629;SDS011;34426;52.180;4.462;2022-11-04T02:04:11;6.03;;;0.82;;
48629;SDS011;34426;52.180;4.462;2022-11-04T02:06:38;9.32;;;0.90;;
48629;SDS011;34426;52.180;4.462;2022-11-04T02:09:04;5.65;;;0.85;;
48629;SDS011;34426;52.180;4.462;2022-11-04T02:11:31;10.98;;;1.83;;
48629;SDS011;34426;52.180;4.462;2022-11-04T02:13:57;8.07;;;0.88;;
48629;SDS011;34426;52.180;4.462;2022-11-04T02:16:23;7.88;;;1.00;;
48629;SDS011;34426;52.180;4.462;2022-11-04T02:18:54;7.85;;;1.10;;
48629;SDS011;34426;52.180;4.462;2022-11-04T02:29:34;11.05;;;1.27;;
48629;SDS011;34426;52.180;4.462;2022-11-04T02:32:05;9.98;;;1.13;;
48629;SDS011;34426;52.180;4.462;2022-11-04T02:34:35;7.60;;;1.65;;
48629;SDS011;34426;52.180;4.462;2022-11-04T02:37:07;7.78;;;1.00;;
48629;SDS011;34426;52.180;4.462;2022-11-04T02:39:36;12.20;;;1.15;;
48629;SDS011;34426;52.180;4.462;2022-11-04T02:42:06;10.07;;;1.50;;
48629;SDS011;34426;52.180;4.462;2022-11-04T02:44:38;10.13;;;2.03;;
48629;SDS011;34426;52.180;4.462;2022-11-04T02:47:07;9.90;;;1.20;;
48629;SDS011;34426;52.180;4.462;2022-11-04T02:49:35;11.10;;;1.70;;
48629;SDS011;34426;52.180;4.462;2022-11-04T02:52:03;6.68;;;1.17;;
48629;SDS011;34426;52.180;4.462;2022-11-04T02:54:32;8.43;;;1.40;;
48629;SDS011;34426;52.180;4.462;2022-11-04T02:56:59;5.43;;;1.35;;
48629;SDS011;34426;52.180;4.462;2022-11-04T02:59:28;5.90;;;1.50;;
48629;SDS011;34426;52.180;4.462;2022-11-04T03:01:58;6.25;;;1.63;;
48629;SDS011;34426;52.180;4.462;2022-11-04T03:04:26;8.68;;;2.92;;
48629;SDS011;34426;52.180;4.462;2022-11-04T03:06:53;7.13;;;3.05;;
48629;SDS011;34426;52.180;4.462;2022-11-04T03:09:20;10.70;;;3.30;;
48629;SDS011;34426;52.180;4.462;2022-11-04T03:11:48;11.85;;;5.07;;
48629;SDS011;34426;52.180;4.462;2022-11-04T03:14:15;15.63;;;5.90;;
48629;SDS011;34426;52.180;4.462;2022-11-04T03:16:43;20.17;;;6.65;;
48629;SDS011;34426;52.180;4.462;2022-11-04T03:19:13;13.75;;;6.97;;
48629;SDS011;34426;52.180;4.462;2022-11-04T03:21:41;13.70;;;8.65;;
48629;SDS011;34426;52.180;4.462;2022-11-04T03:24:10;20.95;;;9.35;;
48629;SDS011;34426;52.180;4.462;2022-11-04T03:26:38;21.52;;;10.10;;
48629;SDS011;34426;52.180;4.462;2022-11-04T03:29:08;18.67;;;9.80;;
48629;SDS011;34426;52.180;4.462;2022-11-04T03:31:38;32.08;;;10.85;;
48629;SDS011;34426;52.180;4.462;2022-11-04T03:34:06;18.33;;;10.80;;
48629;SDS011;34426;52.180;4.462;2022-11-04T03:36:34;26.48;;;11.73;;
48629;SDS011;34426;52.180;4.462;2022-11-04T03:39:00;18.88;;;10.73;;
48629;SDS011;34426;52.180;4.462;2022-11-04T03:41:35;15.68;;;10.23;;
48629;SDS011;34426;52.180;4.462;2022-11-04T03:44:03;20.13;;;10.05;;
48629;SDS011;34426;52.180;4.462;2022-11-04T03:46:29;19.80;;;10.55;;
48629;SDS011;34426;52.180;4.462;2022-11-04T03:48:55;19.17;;;10.48;;
48629;SDS011;34426;52.180;4.462;2022-11-04T03:51:23;23.80;;;11.45;;
48629;SDS011;34426;52.180;4.462;2022-11-04T03:53:51;18.92;;;11.05;;
48629;SDS011;34426;52.180;4.462;2022-11-04T03:56:26;22.27;;;10.70;;
48629;SDS011;34426;52.180;4.462;2022-11-04T03:58:57;23.52;;;11.73;;
48629;SDS011;34426;52.180;4.462;2022-11-04T04:01:26;25.20;;;13.38;;
48629;SDS011;34426;52.180;4.462;2022-11-04T04:03:54;22.55;;;13.23;;
48629;SDS011;34426;52.180;4.462;2022-11-04T04:06:23;31.25;;;14.95;;
48629;SDS011;34426;52.180;4.462;2022-11-04T04:08:53;30.20;;;16.52;;
48629;SDS011;34426;52.180;4.462;2022-11-04T04:11:21;29.08;;;16.42;;
48629;SDS011;34426;52.180;4.462;2022-11-04T04:13:52;33.50;;;17.27;;
48629;SDS011;34426;52.180;4.462;2022-11-04T04:16:21;32.65;;;17.10;;
48629;SDS011;34426;52.180;4.462;2022-11-04T04:18:51;36.28;;;18.17;;
48629;SDS011;34426;52.180;4.462;2022-11-04T04:21:19;30.80;;;17.67;;
48629;SDS011;34426;52.180;4.462;2022-11-04T04:23:46;35.33;;;19.05;;
48629;SDS011;34426;52.180;4.462;2022-11-04T04:26:16;36.30;;;20.40;;
48629;SDS011;34426;52.180;4.462;2022-11-04T04:28:44;33.35;;;19.63;;
48629;SDS011;34426;52.180;4.462;2022-11-04T04:31:10;39.55;;;20.10;;
48629;SDS011;34426;52.180;4.462;2022-11-04T04:33:39;39.33;;;20.77;;
48629;SDS011;34426;52.180;4.462;2022-11-04T04:36:05;41.00;;;20.20;;
48629;SDS011;34426;52.180;4.462;2022-11-04T04:38:34;42.47;;;22.10;;
48629;SDS011;34426;52.180;4.462;2022-11-04T04:41:02;45.38;;;23.60;;
48629;SDS011;34426;52.180;4.462;2022-11-04T04:43:32;41.25;;;23.27;;
48629;SDS011;34426;52.180;4.462;2022-11-04T04:45:58;38.17;;;24.05;;
48629;SDS011;34426;52.180;4.462;2022-11-04T04:48:24;38.60;;;23.58;;
48629;SDS011;34426;52.180;4.462;2022-11-04T04:50:50;37.72;;;22.58;;
48629;SDS011;34426;52.180;4.462;2022-11-04T04:53:17;48.65;;;22.42;;
48629;SDS011;34426;52.180;4.462;2022-11-04T04:55:44;33.78;;;22.67;;
48629;SDS011;34426;52.180;4.462;2022-11-04T04:58:10;38.05;;;22.27;;
48629;SDS011;34426;52.180;4.462;2022-11-04T05:00:38;34.10;;;20.73;;
48629;SDS011;34426;52.180;4.462;2022-11-04T05:03:04;31.08;;;18.38;;
48629;SDS011;34426;52.180;4.462;2022-11-04T05:05:31;34.25;;;18.60;;
48629;SDS011;34426;52.180;4.462;2022-11-04T05:08:02;28.00;;;14.48;;
48629;SDS011;34426;52.180;4.462;2022-11-04T05:10:29;17.67;;;9.55;;
48629;SDS011;34426;52.180;4.462;2022-11-04T05:12:55;23.73;;;11.55;;
48629;SDS011;34426;52.180;4.462;2022-11-04T05:15:21;16.40;;;6.75;;
48629;SDS011;34426;52.180;4.462;2022-11-04T05:17:49;10.40;;;3.92;;
48629;SDS011;34426;52.180;4.462;2022-11-04T05:20:18;8.50;;;2.05;;
48629;SDS011;34426;52.180;4.462;2022-11-04T05:22:45;5.88;;;1.67;;
48629;SDS011;34426;52.180;4.462;2022-11-04T05:25:11;10.68;;;1.95;;
48629;SDS011;34426;52.180;4.462;2022-11-04T05:27:37;5.15;;;1.52;;
48629;SDS011;34426;52.180;4.462;2022-11-04T05:30:03;7.10;;;1.92;;
48629;SDS011;34426;52.180;4.462;2022-11-04T05:32:30;5.75;;;1.40;;
48629;SDS011;34426;52.180;4.462;2022-11-04T05:34:58;6.38;;;1.10;;
48629;SDS011;34426;52.180;4.462;2022-11-04T05:37:24;8.57;;;0.90;;
48629;SDS011;34426;52.180;4.462;2022-11-04T05:39:51;1.67;;;0.63;;
48629;SDS011;34426;52.180;4.462;2022-11-04T05:42:17;2.50;;;0.57;;
48629;SDS011;34426;52.180;4.462;2022-11-04T05:44:43;7.13;;;0.70;;
48629;SDS011;34426;52.180;4.462;2022-11-04T05:47:09;2.30;;;0.60;;
48629;SDS011;34426;52.180;4.462;2022-11-04T05:49:35;1.10;;;0.40;;
48629;SDS011;34426;52.180;4.462;2022-11-04T05:52:06;3.13;;;0.70;;
48629;SDS011;34426;52.180;4.462;2022-11-04T05:54:32;2.38;;;0.50;;
48629;SDS011;34426;52.180;4.462;2022-11-04T05:56:58;1.08;;;0.63;;
48629;SDS011;34426;52.180;4.462;2022-11-04T05:59:24;4.40;;;0.60;;
48629;SDS011;34426;52.180;4.462;2022-11-04T06:01:50;2.38;;;0.65;;
48629;SDS011;34426;52.180;4.462;2022-11-04T06:04:17;4.15;;;0.70;;
48629;SDS011;34426;52.180;4.462;2022-11-04T06:06:43;0.95;;;0.35;;
48629;SDS011;34426;52.180;4.462;2022-11-04T06:09:12;1.55;;;0.20;;
48629;SDS011;34426;52.180;4.462;2022-11-04T06:11:38;1.33;;;0.68;;
48629;SDS011;34426;52.180;4.462;2022-11-04T06:14:04;4.85;;;1.02;;
48629;SDS011;34426;52.180;4.462;2022-11-04T06:16:30;2.28;;;0.75;;
48629;SDS011;34426;52.180;4.462;2022-11-04T06:18:57;7.35;;;1.17;;
48629;SDS011;34426;52.180;4.462;2022-11-04T06:21:24;5.55;;;1.05;;
48629;SDS011;34426;52.180;4.462;2022-11-04T06:23:50;3.17;;;0.90;;
48629;SDS011;34426;52.180;4.462;2022-11-04T06:26:18;2.20;;;0.80;;
48629;SDS011;34426;52.180;4.462;2022-11-04T06:28:45;2.50;;;0.77;;
48629;SDS011;34426;52.180;4.462;2022-11-04T06:31:11;2.65;;;0.57;;
48629;SDS011;34426;52.180;4.462;2022-11-04T06:33:38;4.70;;;0.98;;
48629;SDS011;34426;52.180;4.462;2022-11-04T06:36:05;2.60;;;1.20;;
48629;SDS011;34426;52.180;4.462;2022-11-04T06:38:32;2.53;;;0.85;;
48629;SDS011;34426;52.180;4.462;2022-11-04T06:40:58;3.30;;;0.75;;
48629;SDS011;34426;52.180;4.462;2022-11-04T06:43:26;5.38;;;1.00;;
48629;SDS011;34426;52.180;4.462;2022-11-04T06:45:52;2.78;;;0.90;;
48629;SDS011;34426;52.180;4.462;2022-11-04T06:48:18;5.93;;;1.25;;
48629;SDS011;34426;52.180;4.462;2022-11-04T06:50:45;8.35;;;1.10;;
48629;SDS011;34426;52.180;4.462;2022-11-04T06:53:11;5.10;;;1.02;;
48629;SDS011;34426;52.180;4.462;2022-11-04T06:55:37;7.15;;;1.05;;
48629;SDS011;34426;52.180;4.462;2022-11-04T06:58:03;2.05;;;0.90;;
48629;SDS011;34426;52.180;4.462;2022-11-04T07:00:31;1.50;;;0.88;;
48629;SDS011;34426;52.180;4.462;2022-11-04T07:02:57;6.10;;;1.35;;
48629;SDS011;34426;52.180;4.462;2022-11-04T07:05:23;4.13;;;1.38;;
48629;SDS011;34426;52.180;4.462;2022-11-04T07:07:49;4.80;;;1.17;;
48629;SDS011;34426;52.180;4.462;2022-11-04T07:10:16;3.38;;;1.00;;
48629;SDS011;34426;52.180;4.462;2022-11-04T07:12:42;1.67;;;0.60;;
48629;SDS011;34426;52.180;4.462;2022-11-04T07:15:09;4.60;;;0.90;;
48629;SDS011;34426;52.180;4.462;2022-11-04T07:17:37;4.47;;;1.08;;
48629;SDS011;34426;52.180;4.462;2022-11-04T07:20:03;2.90;;;1.10;;
48629;SDS011;34426;52.180;4.462;2022-11-04T07:22:30;5.88;;;1.13;;
48629;SDS011;34426;52.180;4.462;2022-11-04T07:24:56;5.53;;;1.02;;
48629;SDS011;34426;52.180;4.462;2022-11-04T07:27:22;8.70;;;1.58;;
48629;SDS011;34426;52.180;4.462;2022-11-04T07:29:48;7.45;;;2.10;;
48629;SDS011;34426;52.180;4.462;2022-11-04T07:32:14;5.85;;;2.40;;
48629;SDS011;34426;52.180;4.462;2022-11-04T07:34:42;5.30;;;2.90;;
48629;SDS011;34426;52.180;4.462;2022-11-04T07:37:08;7.47;;;4.28;;
48629;SDS011;34426;52.180;4.462;2022-11-04T07:39:34;11.25;;;4.28;;
48629;SDS011;34426;52.180;4.462;2022-11-04T07:42:00;8.30;;;4.55;;
48629;SDS011;34426;52.180;4.462;2022-11-04T07:44:26;10.45;;;7.82;;
48629;SDS011;34426;52.180;4.462;2022-11-04T07:46:53;17.85;;;9.15;;
48629;SDS011;34426;52.180;4.462;2022-11-04T07:49:19;15.60;;;9.93;;
48629;SDS011;34426;52.180;4.462;2022-11-04T07:51:47;13.85;;;9.55;;
48629;SDS011;34426;52.180;4.462;2022-11-04T07:54:13;17.10;;;9.57;;
48629;SDS011;34426;52.180;4.462;2022-11-04T07:56:39;19.20;;;10.98;;
48629;SDS011;34426;52.180;4.462;2022-11-04T07:59:05;14.57;;;10.60;;
48629;SDS011;34426;52.180;4.462;2022-11-04T08:01:31;20.27;;;12.07;;
48629;SDS011;34426;52.180;4.462;2022-11-04T08:03:57;17.05;;;11.20;;
48629;SDS011;34426;52.180;4.462;2022-11-04T08:06:24;20.33;;;10.65;;
48629;SDS011;34426;52.180;4.462;2022-11-04T08:08:52;15.88;;;10.13;;
48629;SDS011;34426;52.180;4.462;2022-11-04T08:11:19;18.52;;;9.82;;
48629;SDS011;34426;52.180;4.462;2022-11-04T08:13:45;19.77;;;9.57;;
48629;SDS011;34426;52.180;4.462;2022-11-04T08:16:12;11.85;;;8.77;;
48629;SDS011;34426;52.180;4.462;2022-11-04T08:18:39;18.40;;;9.73;;
48629;SDS011;34426;52.180;4.462;2022-11-04T08:21:05;14.85;;;9.57;;
48629;SDS011;34426;52.180;4.462;2022-11-04T08:23:31;16.05;;;8.25;;
48629;SDS011;34426;52.180;4.462;2022-11-04T08:25:59;15.00;;;8.63;;
48629;SDS011;34426;52.180;4.462;2022-11-04T08:28:26;20.42;;;9.55;;
48629;SDS011;34426;52.180;4.462;2022-11-04T08:30:53;18.45;;;8.93;;
48629;SDS011;34426;52.180;4.462;2022-11-04T08:33:19;14.55;;;8.85;;
48629;SDS011;34426;52.180;4.462;2022-11-04T08:35:46;17.35;;;9.40;;
48629;SDS011;34426;52.180;4.462;2022-11-04T08:38:12;14.73;;;10.00;;
48629;SDS011;34426;52.180;4.462;2022-11-04T08:40:38;19.27;;;9.70;;
48629;SDS011;34426;52.180;4.462;2022-11-04T08:43:06;20.13;;;10.48;;
48629;SDS011;34426;52.180;4.462;2022-11-04T08:45:32;16.70;;;10.05;;
48629;SDS011;34426;52.180;4.462;2022-11-04T08:47:59;21.52;;;10.25;;
48629;SDS011;34426;52.180;4.462;2022-11-04T08:50:25;21.13;;;11.45;;
48629;SDS011;34426;52.180;4.462;2022-11-04T08:52:51;14.52;;;10.00;;
48629;SDS011;34426;52.180;4.462;2022-11-04T08:55:16;20.35;;;11.25;;
48629;SDS011;34426;52.180;4.462;2022-11-04T08:57:42;17.13;;;9.85;;
48629;SDS011;34426;52.180;4.462;2022-11-04T09:00:11;18.73;;;11.48;;
48629;SDS011;34426;52.180;4.462;2022-11-04T09:02:37;15.32;;;10.05;;
48629;SDS011;34426;52.180;4.462;2022-11-04T09:05:03;13.77;;;10.45;;
48629;SDS011;34426;52.180;4.462;2022-11-04T09:07:30;18.60;;;10.15;;
48629;SDS011;34426;52.180;4.462;2022-11-04T09:09:56;21.08;;;11.25;;
48629;SDS011;34426;52.180;4.462;2022-11-04T09:12:21;20.77;;;10.70;;
48629;SDS011;34426;52.180;4.462;2022-11-04T09:14:47;15.57;;;10.50;;
48629;SDS011;34426;52.180;4.462;2022-11-04T09:17:15;13.80;;;10.10;;
48629;SDS011;34426;52.180;4.462;2022-11-04T09:19:41;18.92;;;10.55;;
48629;SDS011;34426;52.180;4.462;2022-11-04T09:22:07;17.55;;;9.93;;
48629;SDS011;34426;52.180;4.462;2022-11-04T09:24:33;18.25;;;9.98;;
48629;SDS011;34426;52.180;4.462;2022-11-04T09:27:00;12.32;;;8.90;;
48629;SDS011;34426;52.180;4.462;2022-11-04T09:29:26;22.88;;;10.18;;
48629;SDS011;34426;52.180;4.462;2022-11-04T09:31:52;21.92;;;10.85;;
48629;SDS011;34426;52.180;4.462;2022-11-04T09:34:20;23.10;;;10.13;;
48629;SDS011;34426;52.180;4.462;2022-11-04T09:36:46;19.17;;;9.63;;
48629;SDS011;34426;52.180;4.462;2022-11-04T09:39:12;20.42;;;9.55;;
48629;SDS011;34426;52.180;4.462;2022-11-04T09:44:25;16.67;;;8.88;;
48629;SDS011;34426;52.180;4.462;2022-11-04T09:46:52;22.05;;;9.13;;
48629;SDS011;34426;52.180;4.462;2022-11-04T09:49:22;15.13;;;7.57;;
48629;SDS011;34426;52.180;4.462;2022-11-04T09:51:49;13.50;;;7.55;;
48629;SDS011;34426;52.180;4.462;2022-11-04T09:54:17;24.40;;;8.68;;
48629;SDS011;34426;52.180;4.462;2022-11-04T09:56:45;15.43;;;7.82;;
48629;SDS011;34426;52.180;4.462;2022-11-04T09:59:14;17.38;;;8.23;;
48629;SDS011;34426;52.180;4.462;2022-11-04T10:01:43;18.30;;;8.38;;
48629;SDS011;34426;52.180;4.462;2022-11-04T10:04:19;12.98;;;8.43;;
48629;SDS011;34426;52.180;4.462;2022-11-04T10:06:51;19.38;;;8.63;;
48629;SDS011;34426;52.180;4.462;2022-11-04T10:09:26;19.83;;;8.68;;
48629;SDS011;34426;52.180;4.462;2022-11-04T10:11:58;22.50;;;9.15;;
48629;SDS011;34426;52.180;4.462;2022-11-04T10:14:30;20.70;;;10.40;;
48629;SDS011;34426;52.180;4.462;2022-11-04T10:17:00;19.23;;;8.60;;
48629;SDS011;34426;52.180;4.462;2022-11-04T10:19:38;20.02;;;9.27;;
48629;SDS011;34426;52.180;4.462;2022-11-04T10:22:09;12.80;;;7.25;;
48629;SDS011;34426;52.180;4.462;2022-11-04T10:24:39;15.57;;;6.70;;
48629;SDS011;34426;52.180;4.462;2022-11-04T10:27:08;11.02;;;4.72;;
48629;SDS011;34426;52.180;4.462;2022-11-04T10:29:38;11.60;;;4.15;;
48629;SDS011;34426;52.180;4.462;2022-11-04T10:32:10;15.02;;;3.28;;
48629;SDS011;34426;52.180;4.462;2022-11-04T10:34:38;11.75;;;2.60;;
48629;SDS011;34426;52.180;4.462;2022-11-04T10:37:10;6.32;;;1.38;;
48629;SDS011;34426;52.180;4.462;2022-11-04T10:39:36;6.63;;;1.55;;
48629;SDS011;34426;52.180;4.462;2022-11-04T10:42:04;10.63;;;1.50;;
48629;SDS011;34426;52.180;4.462;2022-11-04T10:44:31;9.02;;;1.85;;
48629;SDS011;34426;52.180;4.462;2022-11-04T10:47:01;11.23;;;1.30;;
48629;SDS011;34426;52.180;4.462;2022-11-04T10:49:38;11.35;;;1.45;;
48629;SDS011;34426;52.180;4.462;2022-11-04T10:52:06;7.13;;;1.20;;
48629;SDS011;34426;52.180;4.462;2022-11-04T10:54:35;4.00;;;1.10;;
48629;SDS011;34426;52.180;4.462;2022-11-04T10:57:03;13.27;;;1.77;;
48629;SDS011;34426;52.180;4.462;2022-11-04T10:59:30;5.45;;;1.00;;
48629;SDS011;34426;52.180;4.462;2022-11-04T11:01:58;5.75;;;1.23;;
48629;SDS011;34426;52.180;4.462;2022-11-04T11:04:25;4.78;;;1.02;;
48629;SDS011;34426;52.180;4.462;2022-11-04T11:06:52;4.85;;;1.10;;
48629;SDS011;34426;52.180;4.462;2022-11-04T11:09:20;4.55;;;1.00;;
48629;SDS011;34426;52.180;4.462;2022-11-04T11:11:48;4.47;;;0.98;;
48629;SDS011;34426;52.180;4.462;2022-11-04T11:14:16;6.10;;;1.35;;
48629;SDS011;34426;52.180;4.462;2022-11-04T11:16:42;3.60;;;0.80;;
48629;SDS011;34426;52.180;4.462;2022-11-04T11:19:16;3.88;;;0.50;;
48629;SDS011;34426;52.180;4.462;2022-11-04T11:21:42;5.18;;;1.00;;
48629;SDS011;34426;52.180;4.462;2022-11-04T11:24:12;4.53;;;0.70;;
48629;SDS011;34426;52.180;4.462;2022-11-04T11:26:38;6.85;;;1.10;;
48629;SDS011;34426;52.180;4.462;2022-11-04T11:29:05;5.95;;;1.15;;
48629;SDS011;34426;52.180;4.462;2022-11-04T11:31:34;5.82;;;1.33;;
48629;SDS011;34426;52.180;4.462;2022-11-04T11:34:01;5.10;;;1.10;;
48629;SDS011;34426;52.180;4.462;2022-11-04T11:36:29;6.55;;;0.90;;
48629;SDS011;34426;52.180;4.462;2022-11-04T11:38:56;3.47;;;0.63;;
48629;SDS011;34426;52.180;4.462;2022-11-04T11:41:24;2.85;;;0.82;;
48629;SDS011;34426;52.180;4.462;2022-11-04T11:43:50;9.27;;;1.20;;
48629;SDS011;34426;52.180;4.462;2022-11-04T11:46:22;2.97;;;0.60;;
48629;SDS011;34426;52.180;4.462;2022-11-04T11:48:50;2.92;;;0.60;;
48629;SDS011;34426;52.180;4.462;2022-11-04T11:51:21;3.33;;;0.50;;
48629;SDS011;34426;52.180;4.462;2022-11-04T11:53:57;4.35;;;0.93;;
48629;SDS011;34426;52.180;4.462;2022-11-04T11:56:28;6.88;;;0.90;;
48629;SDS011;34426;52.180;4.462;2022-11-04T11:58:56;9.60;;;0.80;;
48629;SDS011;34426;52.180;4.462;2022-11-04T12:01:27;6.05;;;0.98;;
48629;SDS011;34426;52.180;4.462;2022-11-04T12:03:54;5.30;;;1.17;;
48629;SDS011;34426;52.180;4.462;2022-11-04T12:06:23;5.53;;;1.08;;
48629;SDS011;34426;52.180;4.462;2022-11-04T12:11:34;6.55;;;2.05;;
48629;SDS011;34426;52.180;4.462;2022-11-04T12:14:02;4.68;;;1.13;;
48629;SDS011;34426;52.180;4.462;2022-11-04T12:16:33;7.57;;;1.30;;
48629;SDS011;34426;52.180;4.462;2022-11-04T12:19:06;7.20;;;1.10;;
48629;SDS011;34426;52.180;4.462;2022-11-04T12:21:36;6.75;;;1.30;;
48629;SDS011;34426;52.180;4.462;2022-11-04T12:24:04;9.05;;;1.17;;
48629;SDS011;34426;52.180;4.462;2022-11-04T12:26:36;6.32;;;1.60;;
48629;SDS011;34426;52.180;4.462;2022-11-04T12:29:11;10.98;;;1.58;;
48629;SDS011;34426;52.180;4.462;2022-11-04T12:31:44;7.05;;;0.98;;
48629;SDS011;34426;52.180;4.462;2022-11-04T12:34:15;6.80;;;1.00;;
48629;SDS011;34426;52.180;4.462;2022-11-04T12:36:52;11.63;;;1.95;;
48629;SDS011;34426;52.180;4.462;2022-11-04T12:39:26;11.48;;;1.63;;
48629;SDS011;34426;52.180;4.462;2022-11-04T12:41:58;10.30;;;1.25;;
48629;SDS011;34426;52.180;4.462;2022-11-04T12:44:27;7.07;;;0.95;;
48629;SDS011;34426;52.180;4.462;2022-11-04T12:46:58;3.13;;;1.40;;
48629;SDS011;34426;52.180;4.462;2022-11-04T12:49:41;5.45;;;1.05;;
48629;SDS011;34426;52.180;4.462;2022-11-04T12:52:15;8.30;;;1.10;;
48629;SDS011;34426;52.180;4.462;2022-11-04T12:54:45;6.30;;;1.00;;
48629;SDS011;34426;52.180;4.462;2022-11-04T12:57:17;7.10;;;1.05;;
48629;SDS011;34426;52.180;4.462;2022-11-04T12:59:53;6.05;;;0.88;;
48629;SDS011;34426;52.180;4.462;2022-11-04T13:02:27;3.58;;;0.63;;
48629;SDS011;34426;52.180;4.462;2022-11-04T13:04:55;7.35;;;1.13;;
48629;SDS011;34426;52.180;4.462;2022-11-04T13:07:26;4.22;;;1.08;;
48629;SDS011;34426;52.180;4.462;2022-11-04T13:09:55;5.47;;;1.13;;
48629;SDS011;34426;52.180;4.462;2022-11-04T13:12:23;4.75;;;1.20;;
48629;SDS011;34426;52.180;4.462;2022-11-04T13:14:51;6.63;;;1.35;;
48629;SDS011;34426;52.180;4.462;2022-11-04T13:17:19;7.95;;;1.10;;
48629;SDS011;34426;52.180;4.462;2022-11-04T13:19:49;8.00;;;1.75;;
48629;SDS011;34426;52.180;4.462;2022-11-04T13:22:16;4.80;;;1.25;;
48629;SDS011;34426;52.180;4.462;2022-11-04T13:24:45;5.40;;;1.10;;
48629;SDS011;34426;52.180;4.462;2022-11-04T13:27:14;7.10;;;1.05;;
48629;SDS011;34426;52.180;4.462;2022-11-04T13:29:43;4.03;;;0.73;;
48629;SDS011;34426;52.180;4.462;2022-11-04T13:32:10;4.22;;;1.33;;
48629;SDS011;34426;52.180;4.462;2022-11-04T13:34:42;5.07;;;1.33;;
48629;SDS011;34426;52.180;4.462;2022-11-04T13:37:16;4.05;;;0.85;;
48629;SDS011;34426;52.180;4.462;2022-11-04T13:39:43;5.28;;;1.30;;
48629;SDS011;34426;52.180;4.462;2022-11-04T13:42:24;8.38;;;1.60;;
48629;SDS011;34426;52.180;4.462;2022-11-04T13:44:55;8.30;;;1.80;;
48629;SDS011;34426;52.180;4.462;2022-11-04T13:47:23;5.63;;;1.40;;
48629;SDS011;34426;52.180;4.462;2022-11-04T13:49:50;5.90;;;1.30;;
48629;SDS011;34426;52.180;4.462;2022-11-04T13:52:18;4.75;;;1.30;;
48629;SDS011;34426;52.180;4.462;2022-11-04T13:54:45;8.60;;;1.60;;
48629;SDS011;34426;52.180;4.462;2022-11-04T13:57:12;4.70;;;1.10;;
48629;SDS011;34426;52.180;4.462;2022-11-04T13:59:39;7.90;;;1.40;;
48629;SDS011;34426;52.180;4.462;2022-11-04T14:04:45;5.72;;;1.92;;
48629;SDS011;34426;52.180;4.462;2022-11-04T14:07:12;9.02;;;2.03;;
48629;SDS011;34426;52.180;4.462;2022-11-04T14:12:27;4.53;;;1.27;;
48629;SDS011;34426;52.180;4.462;2022-11-04T14:14:54;11.20;;;1.55;;
48629;SDS011;34426;52.180;4.462;2022-11-04T14:20:08;6.40;;;1.45;;
48629;SDS011;34426;52.180;4.462;2022-11-04T14:22:36;8.15;;;1.60;;
48629;SDS011;34426;52.180;4.462;2022-11-04T14:25:03;6.45;;;1.30;;
48629;SDS011;34426;52.180;4.462;2022-11-04T14:27:45;9.80;;;1.40;;
48629;SDS011;34426;52.180;4.462;2022-11-04T14:30:25;8.50;;;1.30;;
48629;SDS011;34426;52.180;4.462;2022-11-04T14:32:53;10.52;;;1.38;;
48629;SDS011;34426;52.180;4.462;2022-11-04T14:35:20;7.60;;;1.45;;
48629;SDS011;34426;52.180;4.462;2022-11-04T14:37:50;7.68;;;1.35;;
48629;SDS011;34426;52.180;4.462;2022-11-04T14:40:22;9.02;;;1.60;;
48629;SDS011;34426;52.180;4.462;2022-11-04T14:42:50;14.88;;;1.92;;
48629;SDS011;34426;52.180;4.462;2022-11-04T14:45:18;6.90;;;1.90;;
48629;SDS011;34426;52.180;4.462;2022-11-04T14:47:46;9.73;;;1.95;;
48629;SDS011;34426;52.180;4.462;2022-11-04T14:50:13;10.68;;;2.15;;
48629;SDS011;34426;52.180;4.462;2022-11-04T14:52:43;8.18;;;1.30;;
48629;SDS011;34426;52.180;4.462;2022-11-04T14:55:12;11.10;;;2.50;;
48629;SDS011;34426;52.180;4.462;2022-11-04T14:57:39;8.27;;;1.35;;
48629;SDS011;34426;52.180;4.462;2022-11-04T15:00:28;10.07;;;2.13;;
48629;SDS011;34426;52.180;4.462;2022-11-04T15:03:13;8.38;;;1.75;;
48629;SDS011;34426;52.180;4.462;2022-11-04T15:05:44;14.25;;;1.80;;
48629;SDS011;34426;52.180;4.462;2022-11-04T15:08:27;10.30;;;2.85;;